Bardwell, Ohio
Current Conditions -  °F | °C
As of 8:54 AM on Saturday 25 Oct 2014 (Local Time) from KILN Reporting Station
Haze Haze  
Wind Chill: 50°   Ceiling: 6000
Heat Index: 50°   Visibility: 5mi
Dew Point: 46°   Wind: 7mph
Humidity: 86%   Direction: 220°SW
Pressure: 29.99"   Gusts: NA
Location:  39.064°N, 83.9197°W
Report Text: KILN 251254Z AUTO 22006KT 5SM BR BKN060 10/08 A2999 RMK AO2 SLP165 T01000078
Loading
Personal Weather Stations






























Interactive Weather Map
Tropical Storm Tracking
New forecast layout! Learn more

10-Day Weather Forecast

Advertisements
Track Severe Weather on mobile